Time;durP1;ratioP1;P1;durP2;ratioP2;P2;SDS_P1;SDS_P2;PMS_P1;PMS_P2;Temp;Humidity;BMP_temperature;BMP_pressure;BME280_temperature;BME280_humidity;BME280_pressure;Samples;Min_cycle;Max_cycle;Signal;HPM_P1;HPM_P2
2023/03/10 00:02:21;;;;;;;8.70;6.00;;;5.50;99.90;;;;;;5052848;28;20173;-59
2023/03/10 00:04:52;;;;;;;9.17;6.70;;;6.10;99.90;;;;;;5052834;28;20227;-59
2023/03/10 00:07:18;;;;;;;9.63;6.83;;;5.50;99.90;;;;;;5052709;28;20173;-59
2023/03/10 00:09:44;;;;;;;9.00;6.63;;;5.40;99.90;;;;;;5052481;28;20555;-60
2023/03/10 00:12:10;;;;;;;9.47;6.03;;;5.40;99.90;;;;;;5052766;28;20227;-59
2023/03/10 00:14:36;;;;;;;10.57;6.67;;;5.60;99.90;;;;;;5052465;28;20216;-59
2023/03/10 00:17:02;;;;;;;8.80;6.40;;;;;;;;;;5052531;28;20181;-59
2023/03/10 00:19:28;;;;;;;8.20;6.33;;;5.50;99.90;;;;;;5052599;28;20633;-59
2023/03/10 00:21:54;;;;;;;10.67;6.30;;;5.40;99.90;;;;;;5052328;28;20169;-59
2023/03/10 00:24:20;;;;;;;8.37;5.80;;;5.30;99.90;;;;;;5052617;28;20177;-59
2023/03/10 00:26:48;;;;;;;13.07;6.23;;;5.30;99.90;;;;;;5052318;28;20700;-59
2023/03/10 00:29:14;;;;;;;9.40;5.97;;;5.30;99.90;;;;;;5052313;28;20670;-59
2023/03/10 00:31:40;;;;;;;8.77;6.53;;;5.30;99.90;;;;;;5052200;28;20628;-59
2023/03/10 00:34:05;;;;;;;9.40;6.43;;;5.10;99.90;;;;;;5052131;28;20197;-60
2023/03/10 00:36:32;;;;;;;8.93;6.33;;;4.90;99.90;;;;;;5034433;28;20503;-60
2023/03/10 00:38:59;;;;;;;9.33;6.47;;;5.10;99.90;;;;;;5052229;28;20157;-59
2023/03/10 00:41:31;;;;;;;10.23;6.73;;;5.00;99.90;;;;;;5052154;28;20268;-60
2023/03/10 00:43:58;;;;;;;9.93;6.77;;;5.00;99.90;;;;;;5052162;28;20173;-60
2023/03/10 00:46:24;;;;;;;9.23;6.40;;;4.70;99.90;;;;;;5051997;28;20176;-59
2023/03/10 00:48:50;;;;;;;8.27;6.43;;;4.90;99.90;;;;;;5051984;28;20535;-60
2023/03/10 00:51:18;;;;;;;9.60;6.17;;;4.80;99.90;;;;;;5051967;28;20177;-59
2023/03/10 00:53:43;;;;;;;7.93;5.80;;;4.90;99.90;;;;;;5051789;28;20300;-60
2023/03/10 00:56:24;;;;;;;9.10;5.97;;;5.10;99.90;;;;;;5051960;28;20253;-59
2023/03/10 00:58:51;;;;;;;7.80;5.57;;;4.80;99.90;;;;;;5051879;28;20177;-60
2023/03/10 01:01:28;;;;;;;9.13;6.27;;;4.90;99.90;;;;;;5051759;28;20165;-58
2023/03/10 01:03:56;;;;;;;8.10;5.23;;;4.10;99.90;;;;;;5051795;28;20169;-59
2023/03/10 01:06:23;;;;;;;7.17;5.13;;;4.70;99.90;;;;;;5051634;28;20208;-58
2023/03/10 01:08:49;;;;;;;8.63;5.20;;;5.60;99.90;;;;;;5051788;28;20209;-58
2023/03/10 01:11:16;;;;;;;7.87;5.63;;;4.70;99.90;;;;;;5051511;28;20255;-59
2023/03/10 01:13:42;;;;;;;8.50;5.43;;;4.90;99.90;;;;;;5051508;28;20212;-59
2023/03/10 01:16:08;;;;;;;7.70;5.17;;;5.30;99.90;;;;;;5051660;28;20215;-59
2023/03/10 01:18:34;;;;;;;6.33;4.77;;;4.90;99.90;;;;;;5051474;28;20209;-59
2023/03/10 01:21:00;;;;;;;8.37;5.07;;;4.70;99.90;;;;;;5033589;28;20173;-59
2023/03/10 01:23:26;;;;;;;6.30;4.80;;;4.80;99.90;;;;;;5051375;28;20177;-59
2023/03/10 01:25:52;;;;;;;7.40;5.10;;;3.00;99.90;;;;;;5051274;28;20181;-60
2023/03/10 01:28:19;;;;;;;5.47;4.33;;;4.70;99.90;;;;;;5050832;28;20667;-58
2023/03/10 01:30:45;;;;;;;8.47;4.70;;;4.80;99.90;;;;;;5051353;28;20187;-58
2023/03/10 01:33:12;;;;;;;6.07;4.23;;;4.70;99.90;;;;;;5051328;28;20260;-59
2023/03/10 01:35:38;;;;;;;7.63;4.60;;;4.50;99.90;;;;;;5033577;28;20216;-59
2023/03/10 01:38:04;;;;;;;6.27;3.90;;;4.10;99.90;;;;;;5051413;28;20222;-58
2023/03/10 01:40:30;;;;;;;6.50;4.33;;;4.60;99.90;;;;;;5051240;28;20189;-59
2023/03/10 01:43:17;;;;;;;6.57;4.33;;;4.50;99.90;;;;;;5051154;28;20273;-58
2023/03/10 01:45:43;;;;;;;5.67;4.10;;;4.40;99.90;;;;;;5051139;28;20667;-59
2023/03/10 01:48:09;;;;;;;7.40;4.60;;;5.00;99.90;;;;;;5051157;28;20169;-59
2023/03/10 01:50:34;;;;;;;5.50;4.40;;;4.40;99.90;;;;;;5051081;28;20195;-59
2023/03/10 01:53:00;;;;;;;6.53;4.43;;;4.50;99.90;;;;;;5050915;28;20172;-58
2023/03/10 01:55:33;;;;;;;6.30;4.47;;;4.60;99.90;;;;;;5050980;28;20165;-60
2023/03/10 01:57:59;;;;;;;6.00;4.30;;;4.70;99.90;;;;;;5051021;28;20655;-59
2023/03/10 02:00:28;;;;;;;5.90;4.20;;;4.70;99.90;;;;;;5033021;28;20177;-59
2023/03/10 02:02:56;;;;;;;6.23;4.30;;;4.50;99.90;;;;;;5050985;28;20632;-59
2023/03/10 02:05:22;;;;;;;6.10;4.43;;;4.50;99.90;;;;;;5050924;28;20231;-60
2023/03/10 02:07:49;;;;;;;6.87;4.67;;;4.50;99.90;;;;;;5050938;28;20168;-59
2023/03/10 02:10:15;;;;;;;5.20;4.23;;;4.50;99.90;;;;;;5050861;28;20232;-60
2023/03/10 02:12:42;;;;;;;6.40;4.43;;;4.40;99.90;;;;;;5051001;28;20655;-59
2023/03/10 02:15:10;;;;;;;5.20;4.17;;;4.30;99.90;;;;;;5033308;28;20738;-59
2023/03/10 02:17:36;;;;;;;5.87;3.80;;;4.50;99.90;;;;;;5050850;28;20191;-59
2023/03/10 02:20:08;;;;;;;6.00;4.07;;;4.40;99.90;;;;;;5050757;28;20269;-60
2023/03/10 02:22:34;;;;;;;5.43;3.93;;;4.20;99.90;;;;;;5050786;28;20619;-59
2023/03/10 02:25:30;;;;;;;5.67;3.83;;;4.40;99.90;;;;;;5050890;28;20177;-59
2023/03/10 02:27:56;;;;;;;5.13;3.67;;;;;;;;;;5051383;28;20208;-58
2023/03/10 02:30:34;;;;;;;5.53;3.50;;;4.40;99.90;;;;;;5050811;28;20339;-59
2023/03/10 02:33:17;;;;;;;5.03;3.37;;;4.70;99.90;;;;;;5050931;28;20204;-58
2023/03/10 02:35:43;;;;;;;4.40;3.30;;;4.40;99.90;;;;;;5050680;28;20188;-59
2023/03/10 02:38:08;;;;;;;4.90;3.50;;;3.50;99.90;;;;;;5050513;28;20188;-59
2023/03/10 02:40:39;;;;;;;5.00;3.00;;;4.50;99.90;;;;;;5051296;28;20174;-60
2023/03/10 02:43:31;;;;;;;5.30;3.53;;;4.30;99.90;;;;;;5054415;28;20165;-60
2023/03/10 02:46:03;;;;;;;4.63;3.50;;;4.40;99.90;;;;;;5054467;28;20219;-60
2023/03/10 02:48:33;;;;;;;4.40;3.37;;;4.30;99.90;;;;;;5054375;28;20173;-60
2023/03/10 02:51:00;;;;;;;5.00;3.30;;;4.40;99.90;;;;;;5054255;28;20529;-60
2023/03/10 02:53:28;;;;;;;6.27;3.67;;;4.30;99.90;;;;;;5054147;28;20235;-59
2023/03/10 02:55:54;;;;;;;5.30;3.77;;;4.50;99.90;;;;;;5054128;28;20213;-59
2023/03/10 02:58:21;;;;;;;5.03;3.47;;;4.30;99.90;;;;;;5054176;28;20170;-59
2023/03/10 03:00:48;;;;;;;5.13;3.70;;;4.40;99.90;;;;;;5054091;28;20690;-59
2023/03/10 03:03:15;;;;;;;4.93;2.97;;;4.00;99.90;;;;;;5054082;28;20184;-59
2023/03/10 03:05:40;;;;;;;4.87;3.37;;;4.60;99.90;;;;;;5053934;28;20173;-59
2023/03/10 03:08:08;;;;;;;4.13;3.20;;;4.30;99.90;;;;;;5054075;28;20253;-60
2023/03/10 03:10:34;;;;;;;5.53;3.23;;;4.10;99.90;;;;;;5053722;28;20224;-59
2023/03/10 03:13:00;;;;;;;3.03;2.50;;;4.40;99.90;;;;;;5053993;28;20182;-59
2023/03/10 03:15:27;;;;;;;3.43;2.73;;;4.30;99.90;;;;;;5036194;28;20534;-59
2023/03/10 03:17:53;;;;;;;3.93;2.80;;;4.10;99.90;;;;;;5053885;28;20711;-59
2023/03/10 03:20:20;;;;;;;4.27;2.27;;;3.90;99.90;;;;;;5054019;28;20230;-60
2023/03/10 03:22:47;;;;;;;3.97;2.43;;;4.30;99.90;;;;;;5053830;28;20265;-59
2023/03/10 03:25:15;;;;;;;2.97;2.30;;;4.20;99.90;;;;;;5053764;28;20196;-59
2023/03/10 03:27:41;;;;;;;4.43;2.70;;;4.40;99.90;;;;;;5054023;28;20186;-59
2023/03/10 03:30:20;;;;;;;4.63;2.67;;;4.20;99.90;;;;;;5053674;28;20205;-59
2023/03/10 03:32:46;;;;;;;9.00;3.13;;;;;;;;;;5053409;28;20526;-59
2023/03/10 03:35:16;;;;;;;4.70;3.20;;;4.20;99.90;;;;;;5053510;28;20255;-59
2023/03/10 03:37:43;;;;;;;4.60;3.03;;;4.30;99.90;;;;;;5035629;28;20181;-59
2023/03/10 03:40:13;;;;;;;4.03;2.97;;;4.20;99.90;;;;;;5053395;28;20667;-59
2023/03/10 03:42:40;;;;;;;4.70;3.33;;;4.20;99.90;;;;;;5053276;28;20650;-58
2023/03/10 03:45:07;;;;;;;4.20;2.70;;;4.10;99.90;;;;;;5053487;28;20200;-59
2023/03/10 03:47:33;;;;;;;4.60;3.40;;;4.20;99.90;;;;;;5054371;28;20169;-59
2023/03/10 03:49:59;;;;;;;4.73;3.17;;;3.90;99.90;;;;;;5053637;28;20187;-59
2023/03/10 03:52:24;;;;;;;4.40;3.23;;;4.30;99.90;;;;;;5035964;28;20262;-61
2023/03/10 03:54:50;;;;;;;4.50;3.50;;;4.30;99.90;;;;;;5053984;28;20733;-59
2023/03/10 03:57:16;;;;;;;4.87;3.37;;;4.20;99.90;;;;;;5053262;28;20690;-58
2023/03/10 03:59:41;;;;;;;5.37;3.57;;;4.10;99.90;;;;;;5035275;28;20547;-59
2023/03/10 04:02:07;;;;;;;4.10;3.13;;;4.20;99.90;;;;;;5053053;28;20227;-58
2023/03/10 04:04:33;;;;;;;4.27;3.20;;;;;;;;;;5052782;28;20651;-60
2023/03/10 04:07:00;;;;;;;4.60;3.30;;;4.30;99.90;;;;;;5052952;28;20169;-60
2023/03/10 04:09:26;;;;;;;4.80;3.17;;;4.30;99.90;;;;;;5052869;28;20373;-58
2023/03/10 04:11:51;;;;;;;4.70;3.40;;;4.30;99.90;;;;;;5052818;28;20166;-59
2023/03/10 04:14:17;;;;;;;5.10;3.40;;;3.70;99.90;;;;;;5052817;28;20205;-60
2023/03/10 04:16:43;;;;;;;4.27;3.10;;;4.50;99.90;;;;;;5034936;28;20777;-59
2023/03/10 04:19:09;;;;;;;4.83;3.10;;;4.60;99.90;;;;;;5052666;28;20173;-59
2023/03/10 04:21:35;;;;;;;4.10;3.03;;;4.10;99.90;;;;;;5052713;28;20192;-59
2023/03/10 04:24:01;;;;;;;4.80;2.87;;;;;;;;;;5052543;28;20170;-60
2023/03/10 04:26:27;;;;;;;4.00;2.90;;;4.10;99.90;;;;;;5034644;28;20187;-59
2023/03/10 04:28:52;;;;;;;4.53;3.00;;;5.30;99.90;;;;;;5052581;28;20248;-59
2023/03/10 04:31:18;;;;;;;5.07;3.20;;;4.10;99.90;;;;;;5052590;28;20181;-59
2023/03/10 04:33:44;;;;;;;5.63;3.03;;;4.30;99.90;;;;;;5052313;28;20725;-59
2023/03/10 04:36:10;;;;;;;3.40;2.47;;;3.90;99.90;;;;;;5052393;28;20185;-58
2023/03/10 04:38:37;;;;;;;3.57;2.70;;;4.10;99.90;;;;;;5052585;28;20169;-58
2023/03/10 04:41:03;;;;;;;4.33;2.47;;;3.90;99.90;;;;;;5052478;28;20181;-59
2023/03/10 04:43:30;;;;;;;3.23;2.53;;;6.30;99.90;;;;;;5052333;28;20177;-59
2023/03/10 04:45:56;;;;;;;3.07;1.80;;;4.10;99.90;;;;;;5052378;28;20505;-59
2023/03/10 04:48:23;;;;;;;3.13;2.37;;;3.80;99.90;;;;;;5052548;28;20180;-60
2023/03/10 04:51:01;;;;;;;2.80;2.13;;;3.90;99.90;;;;;;5052293;28;20173;-59
2023/03/10 04:53:27;;;;;;;5.33;2.33;;;3.90;99.90;;;;;;5052342;28;20213;-60
2023/03/10 04:55:53;;;;;;;3.73;2.23;;;3.80;99.90;;;;;;5051987;28;20181;-59
2023/03/10 04:58:20;;;;;;;4.60;2.57;;;4.00;99.90;;;;;;5051999;28;20342;-59
2023/03/10 05:00:45;;;;;;;3.03;2.27;;;3.90;99.90;;;;;;5051956;28;20256;-59
2023/03/10 05:03:13;;;;;;;2.97;2.10;;;4.40;99.90;;;;;;5051102;28;20264;-60
2023/03/10 05:05:39;;;;;;;2.73;2.17;;;;;;;;;;5051794;28;20199;-59
2023/03/10 05:08:05;;;;;;;5.13;2.60;;;3.80;99.90;;;;;;5051783;28;20573;-59
2023/03/10 05:10:31;;;;;;;2.97;2.30;;;3.90;99.90;;;;;;5051591;28;20700;-59
2023/03/10 05:12:57;;;;;;;2.77;2.27;;;3.80;99.90;;;;;;5051841;28;20181;-59
2023/03/10 05:15:23;;;;;;;2.70;2.30;;;3.80;99.90;;;;;;5051568;28;20254;-59
2023/03/10 05:17:48;;;;;;;3.97;2.27;;;3.80;99.90;;;;;;5033826;28;20184;-59
2023/03/10 05:20:14;;;;;;;2.73;1.90;;;3.50;99.90;;;;;;5034000;28;20928;-59
2023/03/10 05:22:41;;;;;;;2.77;1.83;;;3.70;99.90;;;;;;5051884;28;20531;-59
2023/03/10 05:25:08;;;;;;;2.63;1.83;;;3.60;99.90;;;;;;5051549;28;20265;-59
2023/03/10 05:27:35;;;;;;;3.43;1.60;;;3.60;99.90;;;;;;5051444;28;20274;-59
2023/03/10 05:30:03;;;;;;;2.50;1.90;;;3.60;99.90;;;;;;5033639;28;20177;-59
2023/03/10 05:32:32;;;;;;;2.03;1.60;;;3.50;99.90;;;;;;5051640;28;20170;-59
2023/03/10 05:34:57;;;;;;;1.83;1.50;;;3.50;99.90;;;;;;5051279;28;20197;-59
2023/03/10 05:37:23;;;;;;;3.43;1.40;;;3.50;99.90;;;;;;5053978;28;20525;-59
2023/03/10 05:39:49;;;;;;;1.97;1.43;;;3.50;99.90;;;;;;5052613;28;20276;-63
2023/03/10 05:42:14;;;;;;;2.17;1.43;;;3.50;99.90;;;;;;5052608;28;20199;-59
2023/03/10 05:44:40;;;;;;;1.83;1.20;;;3.60;99.90;;;;;;5051209;28;20650;-59
2023/03/10 05:47:06;;;;;;;1.60;1.20;;;3.80;99.90;;;;;;5051215;28;20245;-59
2023/03/10 05:49:32;;;;;;;1.50;1.10;;;;;;;;;;5051259;28;20208;-59
2023/03/10 05:51:58;;;;;;;3.07;1.20;;;3.80;99.90;;;;;;5051173;28;20169;-60
2023/03/10 05:54:23;;;;;;;1.33;1.00;;;3.60;99.90;;;;;;5051038;28;20213;-59
2023/03/10 05:56:49;;;;;;;1.37;1.00;;;3.30;99.90;;;;;;5051251;28;20176;-59
2023/03/10 05:59:15;;;;;;;2.17;0.80;;;3.30;99.90;;;;;;5052065;28;20173;-59
2023/03/10 06:01:41;;;;;;;1.43;0.87;;;3.30;99.90;;;;;;5053393;28;20175;-68
2023/03/10 06:04:07;;;;;;;0.83;0.80;;;3.10;99.90;;;;;;5053209;28;20177;-65
2023/03/10 06:06:33;;;;;;;1.73;0.87;;;3.30;99.90;;;;;;5053205;28;20184;-62
2023/03/10 06:08:59;;;;;;;1.03;0.50;;;3.70;99.90;;;;;;5053227;28;20174;-59
2023/03/10 06:11:25;;;;;;;1.70;0.60;;;3.10;99.90;;;;;;5053340;28;20259;-59
2023/03/10 06:13:51;;;;;;;0.60;0.50;;;3.10;99.90;;;;;;5053174;28;20216;-59
2023/03/10 06:16:17;;;;;;;1.70;0.60;;;3.40;99.90;;;;;;5056844;28;20177;-60
2023/03/10 06:18:42;;;;;;;0.60;0.50;;;3.50;99.90;;;;;;5056883;28;20259;-59
2023/03/10 06:21:10;;;;;;;0.40;0.40;;;3.30;99.90;;;;;;5057068;28;20170;-59
2023/03/10 06:23:37;;;;;;;1.00;0.50;;;3.10;99.90;;;;;;5057911;28;20766;-60
2023/03/10 06:26:11;;;;;;;1.93;0.40;;;3.20;99.90;;;;;;5056776;28;20255;-59
2023/03/10 06:28:38;;;;;;;0.73;0.40;;;3.30;99.90;;;;;;5056199;28;20173;-60
2023/03/10 06:31:07;;;;;;;1.93;0.30;;;3.30;99.90;;;;;;5055996;28;20725;-59
2023/03/10 06:33:33;;;;;;;1.47;0.40;;;3.30;99.90;;;;;;5056055;28;20201;-60
2023/03/10 06:35:59;;;;;;;0.93;0.50;;;3.30;99.90;;;;;;5056204;28;20592;-68
2023/03/10 06:38:25;;;;;;;0.40;0.40;;;3.40;99.90;;;;;;5056683;28;20509;-62
2023/03/10 06:40:50;;;;;;;0.60;0.40;;;3.20;99.90;;;;;;5056727;28;20181;-60
2023/03/10 06:43:16;;;;;;;0.63;0.30;;;3.20;99.90;;;;;;5055784;28;20176;-60
2023/03/10 06:45:43;;;;;;;0.80;0.40;;;3.40;99.90;;;;;;5056957;28;20181;-59
2023/03/10 06:48:09;;;;;;;0.83;0.40;;;3.50;99.90;;;;;;5057468;28;20196;-58
2023/03/10 06:50:35;;;;;;;0.90;0.40;;;3.10;99.90;;;;;;5023192;28;20227;-59
2023/03/10 06:53:01;;;;;;;0.43;0.30;;;3.20;99.90;;;;;;5056218;28;20173;-65
2023/03/10 06:55:26;;;;;;;0.63;0.30;;;3.20;99.90;;;;;;5057423;28;20251;-58
2023/03/10 06:57:52;;;;;;;0.53;0.40;;;;;;;;;;5057217;28;20186;-59
2023/03/10 07:00:18;;;;;;;1.47;0.40;;;;;;;;;;5055531;28;20174;-59
2023/03/10 07:02:44;;;;;;;1.90;0.57;;;3.30;99.90;;;;;;5037679;28;20536;-61
2023/03/10 07:05:12;;;;;;;1.60;0.40;;;3.30;99.90;;;;;;5056212;28;20177;-58
2023/03/10 07:07:37;;;;;;;0.97;0.40;;;3.50;99.90;;;;;;5056397;28;20215;-62
2023/03/10 07:10:04;;;;;;;0.90;0.50;;;3.10;99.90;;;;;;5056216;28;20741;-65
2023/03/10 07:12:30;;;;;;;0.80;0.60;;;3.30;99.90;;;;;;5056190;28;20192;-63
2023/03/10 07:14:56;;;;;;;0.90;0.60;;;3.00;99.90;;;;;;5056466;28;20562;-65
2023/03/10 07:17:22;;;;;;;2.57;0.67;;;;;;;;;;5056268;28;20672;-60
2023/03/10 07:19:47;;;;;;;0.67;0.50;;;3.40;99.90;;;;;;5056303;28;20219;-63
2023/03/10 07:22:13;;;;;;;1.00;0.53;;;3.60;99.90;;;;;;5056243;28;20243;-61
2023/03/10 07:24:39;;;;;;;0.60;0.50;;;;;;;;;;5056389;28;20183;-61
2023/03/10 07:27:05;;;;;;;0.47;0.47;;;3.30;99.90;;;;;;5055466;28;20173;-60
2023/03/10 07:29:30;;;;;;;0.50;0.50;;;3.30;99.90;;;;;;5055937;28;20189;-61
2023/03/10 07:31:56;;;;;;;0.60;0.57;;;3.10;99.90;;;;;;5038266;28;20180;-59
2023/03/10 07:34:23;;;;;;;0.73;0.53;;;3.40;99.90;;;;;;5055975;28;20234;-60
2023/03/10 07:36:49;;;;;;;4.23;1.40;;;3.40;99.90;;;;;;5055950;28;20165;-70
2023/03/10 07:39:15;;;;;;;1.80;0.87;;;3.40;99.90;;;;;;5056476;28;20180;-61
2023/03/10 07:41:40;;;;;;;0.90;0.60;;;3.40;99.90;;;;;;5055693;28;20165;-66
2023/03/10 07:44:06;;;;;;;1.53;0.70;;;3.10;99.90;;;;;;5055543;28;20166;-61
2023/03/10 07:46:31;;;;;;;2.20;0.60;;;3.40;99.90;;;;;;5055546;28;20173;-59
2023/03/10 07:48:59;;;;;;;0.93;0.47;;;3.40;99.90;;;;;;5055136;28;20227;-60
2023/03/10 07:51:25;;;;;;;1.43;0.60;;;3.30;99.90;;;;;;5054930;28;20188;-59
2023/03/10 07:53:52;;;;;;;2.53;1.00;;;;;;;;;;5055410;28;20196;-65
2023/03/10 07:56:18;;;;;;;1.20;0.83;;;3.30;99.90;;;;;;5057097;28;20170;-60
2023/03/10 07:58:44;;;;;;;1.13;0.70;;;;;;;;;;5056232;28;20536;-64
2023/03/10 08:01:15;;;;;;;1.03;0.70;;;2.00;99.90;;;;;;5055407;28;20161;-62
2023/03/10 08:03:41;;;;;;;1.03;0.70;;;3.30;99.90;;;;;;5055421;28;20165;-62
2023/03/10 08:06:07;;;;;;;0.83;0.60;;;3.50;99.90;;;;;;5055097;28;20177;-61
2023/03/10 08:08:33;;;;;;;1.13;0.60;;;3.40;99.90;;;;;;5055406;28;20248;-60
2023/03/10 08:11:04;;;;;;;2.07;0.60;;;3.60;99.90;;;;;;5054676;28;20307;-59
2023/03/10 08:13:30;;;;;;;2.90;0.90;;;3.30;99.90;;;;;;5055018;28;20461;-60
2023/03/10 08:16:00;;;;;;;1.97;0.80;;;3.60;99.90;;;;;;5055996;28;20640;-62
2023/03/10 08:18:28;;;;;;;1.00;0.90;;;3.90;99.90;;;;;;5055569;28;20188;-60
2023/03/10 08:20:54;;;;;;;0.93;0.80;;;3.90;99.90;;;;;;5056131;28;20235;-62
2023/03/10 08:23:20;;;;;;;1.37;0.60;;;3.70;99.90;;;;;;5055915;28;20268;-60
2023/03/10 08:25:45;;;;;;;2.53;0.70;;;4.00;99.90;;;;;;5056262;28;20205;-68
2023/03/10 08:28:11;;;;;;;1.63;0.70;;;4.20;99.90;;;;;;5055637;28;20173;-59
2023/03/10 08:30:38;;;;;;;1.57;0.80;;;3.60;99.90;;;;;;5054732;28;20181;-59
2023/03/10 08:33:07;;;;;;;0.60;0.50;;;3.80;99.90;;;;;;5055953;28;20170;-63
2023/03/10 08:35:33;;;;;;;1.20;0.73;;;4.00;99.90;;;;;;5055299;28;20234;-58
2023/03/10 08:37:59;;;;;;;1.50;0.80;;;4.30;99.90;;;;;;5055953;28;20260;-60
2023/03/10 08:40:25;;;;;;;2.10;0.80;;;3.70;99.90;;;;;;5055096;28;20201;-59
2023/03/10 08:42:50;;;;;;;1.90;0.90;;;4.00;99.90;;;;;;5055422;28;20169;-59
2023/03/10 08:45:16;;;;;;;2.53;0.87;;;3.90;99.90;;;;;;5055258;28;20173;-60
2023/03/10 08:47:42;;;;;;;0.97;0.83;;;4.00;99.90;;;;;;5055859;28;20161;-60
2023/03/10 08:50:11;;;;;;;1.67;1.00;;;3.90;99.90;;;;;;5055630;28;20265;-60
2023/03/10 08:52:39;;;;;;;1.13;0.70;;;4.10;99.90;;;;;;5055987;28;20176;-65
2023/03/10 08:55:05;;;;;;;3.27;1.17;;;4.50;99.90;;;;;;5054825;28;20750;-59
2023/03/10 08:57:31;;;;;;;1.63;1.00;;;4.00;99.90;;;;;;5054349;28;20212;-58
2023/03/10 08:59:57;;;;;;;1.97;0.90;;;;;;;;;;5054232;28;20176;-59
2023/03/10 09:02:24;;;;;;;1.87;0.87;;;;;;;;;;5052145;28;20227;-58
2023/03/10 09:04:49;;;;;;;1.73;0.90;;;5.20;99.90;;;;;;5051436;28;20219;-59
2023/03/10 09:07:16;;;;;;;3.17;1.00;;;5.10;99.90;;;;;;5051590;28;20546;-59
2023/03/10 09:09:42;;;;;;;1.17;0.80;;;4.80;99.90;;;;;;5051624;28;20304;-59
2023/03/10 09:12:08;;;;;;;0.80;0.50;;;4.90;99.90;;;;;;5051614;28;20640;-59
2023/03/10 09:14:35;;;;;;;0.70;0.60;;;5.00;99.90;;;;;;5051539;28;20213;-59
2023/03/10 09:17:00;;;;;;;2.43;0.50;;;5.20;99.90;;;;;;5051479;28;20188;-60
2023/03/10 09:19:26;;;;;;;1.33;0.60;;;6.10;99.90;;;;;;5051475;28;20173;-59
2023/03/10 09:21:54;;;;;;;1.23;0.53;;;5.70;99.90;;;;;;5051530;28;20678;-59
2023/03/10 09:24:19;;;;;;;2.27;0.80;;;6.10;99.90;;;;;;5033636;28;20184;-59
2023/03/10 09:26:45;;;;;;;0.60;0.50;;;;;;;;;;5051364;28;20170;-60
2023/03/10 09:29:11;;;;;;;1.60;0.53;;;9.20;99.90;;;;;;5051360;28;20631;-60
2023/03/10 09:31:38;;;;;;;0.50;0.40;;;9.50;99.90;;;;;;5051308;28;20173;-60
2023/03/10 09:34:04;;;;;;;0.93;0.40;;;9.10;99.90;;;;;;5051139;28;20201;-59
2023/03/10 09:36:30;;;;;;;2.73;0.50;;;8.60;99.90;;;;;;5051313;28;20177;-59
2023/03/10 09:38:56;;;;;;;0.73;0.40;;;10.70;99.90;;;;;;5051129;28;20256;-59
2023/03/10 09:41:49;;;;;;;0.77;0.40;;;10.80;99.90;;;;;;5051319;28;20203;-59
2023/03/10 09:44:29;;;;;;;1.13;0.43;;;9.40;99.90;;;;;;5051116;28;20177;-59
2023/03/10 09:47:17;;;;;;;1.90;0.50;;;8.10;99.90;;;;;;5051225;28;20650;-59
2023/03/10 09:49:56;;;;;;;0.77;0.40;;;7.20;99.90;;;;;;5050652;28;20188;-59
2023/03/10 09:52:34;;;;;;;1.10;0.40;;;7.20;99.90;;;;;;5050952;28;20193;-59
2023/03/10 09:55:12;;;;;;;0.40;0.40;;;7.20;99.90;;;;;;5050971;28;20223;-59
2023/03/10 09:57:38;;;;;;;1.13;0.50;;;6.70;99.90;;;;;;5050972;28;20173;-59
2023/03/10 10:00:10;;;;;;;1.53;0.50;;;6.70;99.90;;;;;;5050925;28;20643;-59
2023/03/10 10:02:41;;;;;;;0.80;0.40;;;6.60;99.90;;;;;;5050847;28;20631;-59
2023/03/10 10:05:22;;;;;;;0.40;0.33;;;6.40;99.90;;;;;;5050738;28;20223;-59
2023/03/10 10:08:01;;;;;;;0.60;0.40;;;6.40;99.90;;;;;;5033002;28;20164;-60
2023/03/10 10:10:35;;;;;;;1.43;0.50;;;6.30;99.90;;;;;;5032680;28;20585;-59
2023/03/10 10:13:12;;;;;;;1.07;0.50;;;6.20;99.90;;;;;;5050796;28;20177;-59
2023/03/10 10:15:43;;;;;;;1.30;0.50;;;6.00;99.90;;;;;;5051056;28;20304;-59
2023/03/10 10:18:27;;;;;;;0.83;0.50;;;5.80;99.90;;;;;;5033596;28;20223;-59
2023/03/10 10:21:04;;;;;;;0.87;0.60;;;5.70;99.90;;;;;;5050712;28;20189;-59
2023/03/10 10:23:42;;;;;;;1.87;0.70;;;6.00;99.90;;;;;;5050590;28;20165;-59
2023/03/10 10:26:14;;;;;;;0.67;0.60;;;5.90;99.90;;;;;;5050503;28;20817;-59
2023/03/10 10:29:05;;;;;;;0.40;0.40;;;5.50;99.90;;;;;;5050479;28;20181;-59
2023/03/10 10:31:32;;;;;;;0.67;0.60;;;5.60;99.90;;;;;;5050551;28;20242;-59
2023/03/10 10:34:16;;;;;;;0.93;0.60;;;6.50;99.90;;;;;;5050494;28;20280;-59
2023/03/10 10:36:54;;;;;;;0.37;0.37;;;5.40;99.90;;;;;;5050420;28;20173;-59
2023/03/10 10:39:32;;;;;;;0.70;0.47;;;5.40;99.90;;;;;;5050362;28;20636;-58
2023/03/10 10:42:18;;;;;;;1.60;0.60;;;5.30;99.90;;;;;;5033017;28;20208;-59
2023/03/10 10:44:44;;;;;;;1.93;0.70;;;5.30;99.90;;;;;;5050363;28;20173;-58
2023/03/10 10:47:31;;;;;;;0.50;0.40;;;5.60;99.90;;;;;;5050174;28;20231;-59
2023/03/10 10:50:22;;;;;;;1.07;0.70;;;5.30;99.90;;;;;;5050500;28;20181;-59
2023/03/10 10:52:51;;;;;;;1.73;0.60;;;5.20;99.90;;;;;;5040677;28;20192;-59
2023/03/10 10:55:26;;;;;;;3.57;1.07;;;5.40;99.90;;;;;;5032392;28;20220;-59
2023/03/10 10:58:01;;;;;;;0.70;0.53;;;5.40;99.90;;;;;;5050337;28;20172;-60
2023/03/10 11:00:33;;;;;;;2.73;0.90;;;5.70;99.90;;;;;;5050328;28;20168;-60
2023/03/10 11:02:59;;;;;;;2.43;0.93;;;5.30;99.90;;;;;;5053073;28;20180;-60
2023/03/10 11:05:32;;;;;;;1.00;0.60;;;5.50;99.90;;;;;;5053947;28;20203;-60
2023/03/10 11:08:16;;;;;;;0.60;0.60;;;5.70;99.90;;;;;;5054070;28;20169;-58
2023/03/10 11:10:45;;;;;;;1.40;0.80;;;6.70;99.90;;;;;;5053764;28;20307;-59
2023/03/10 11:13:17;;;;;;;2.43;0.83;;;5.50;99.90;;;;;;5053950;28;20205;-59
2023/03/10 11:16:01;;;;;;;2.70;1.13;;;5.90;99.90;;;;;;5053702;28;20280;-59
2023/03/10 11:18:44;;;;;;;1.30;0.70;;;5.90;99.90;;;;;;5053779;28;20184;-59
2023/03/10 11:21:22;;;;;;;2.00;0.70;;;6.50;99.90;;;;;;5053662;28;20189;-58
2023/03/10 11:24:07;;;;;;;1.00;0.80;;;6.80;99.90;;;;;;5053646;28;20172;-59
2023/03/10 11:26:48;;;;;;;1.27;0.90;;;6.90;99.90;;;;;;5053575;28;20273;-59
2023/03/10 11:29:30;;;;;;;3.90;1.23;;;7.00;99.90;;;;;;5053545;28;20266;-59
2023/03/10 11:32:14;;;;;;;1.47;0.90;;;7.40;99.90;;;;;;5053481;28;20166;-59
2023/03/10 11:34:48;;;;;;;1.97;0.83;;;7.20;99.90;;;;;;5053446;28;20248;-59
2023/03/10 11:37:41;;;;;;;1.93;1.10;;;7.10;99.90;;;;;;5053568;28;20169;-59
2023/03/10 11:40:14;;;;;;;1.17;0.80;;;6.50;99.90;;;;;;5053348;28;20180;-59
2023/03/10 11:43:06;;;;;;;1.83;1.10;;;5.30;99.90;;;;;;5053367;28;20196;-59
2023/03/10 11:45:45;;;;;;;2.30;0.90;;;6.30;99.90;;;;;;5035517;28;20224;-59
2023/03/10 11:48:41;;;;;;;3.10;0.90;;;6.40;99.90;;;;;;5053307;28;20177;-59
2023/03/10 11:51:18;;;;;;;1.57;0.60;;;6.70;99.90;;;;;;5053115;28;20169;-59
2023/03/10 11:53:49;;;;;;;1.37;0.83;;;6.60;99.90;;;;;;5053156;28;20257;-59
2023/03/10 11:56:17;;;;;;;4.90;1.10;;;6.80;99.90;;;;;;5053113;28;20181;-59
2023/03/10 11:59:08;;;;;;;1.37;0.80;;;6.40;99.90;;;;;;5053135;28;20635;-59
2023/03/10 12:01:45;;;;;;;1.50;0.90;;;6.40;99.90;;;;;;5052915;28;20181;-59
2023/03/10 12:04:21;;;;;;;1.13;0.97;;;7.20;99.90;;;;;;5052957;28;20176;-59
2023/03/10 12:06:55;;;;;;;1.20;0.83;;;7.00;99.90;;;;;;5052907;28;20247;-59
2023/03/10 12:09:30;;;;;;;4.27;0.83;;;7.40;99.90;;;;;;5052639;28;20209;-58
2023/03/10 12:11:56;;;;;;;1.50;0.80;;;7.30;99.90;;;;;;5034855;28;20257;-58
2023/03/10 12:14:23;;;;;;;1.73;0.90;;;7.40;99.90;;;;;;5052238;28;20750;-59
2023/03/10 12:16:51;;;;;;;2.10;0.60;;;8.50;99.90;;;;;;5052867;28;20219;-59
2023/03/10 12:19:17;;;;;;;3.60;0.70;;;7.10;99.90;;;;;;5053218;28;20173;-58
2023/03/10 12:21:42;;;;;;;1.33;0.80;;;8.50;99.90;;;;;;5052611;28;20653;-58
2023/03/10 12:24:41;;;;;;;1.20;0.70;;;8.30;99.90;;;;;;5052502;28;20169;-58
2023/03/10 12:27:07;;;;;;;1.90;0.83;;;8.20;99.90;;;;;;5052451;28;20177;-58
2023/03/10 12:29:35;;;;;;;1.43;0.80;;;8.30;99.90;;;;;;5052443;28;20268;-58
2023/03/10 12:32:01;;;;;;;2.07;0.60;;;8.00;99.90;;;;;;5052240;28;20235;-58
2023/03/10 12:34:30;;;;;;;0.90;0.67;;;8.20;99.90;;;;;;5052232;28;20209;-58
2023/03/10 12:37:10;;;;;;;1.50;0.73;;;8.80;99.90;;;;;;5052185;28;20211;-58
2023/03/10 12:39:37;;;;;;;1.33;0.77;;;;;;;;;;5052179;28;20635;-58
2023/03/10 12:42:22;;;;;;;0.70;0.60;;;8.80;99.90;;;;;;5052302;28;20188;-59
2023/03/10 12:44:59;;;;;;;1.70;0.70;;;8.30;99.90;;;;;;5052143;28;20178;-58
2023/03/10 12:47:44;;;;;;;4.43;0.67;;;8.50;99.90;;;;;;5052066;28;20161;-58
2023/03/10 12:50:52;;;;;;;1.13;0.50;;;8.30;99.90;;;;;;5051935;28;20260;-59
2023/03/10 12:53:26;;;;;;;2.60;0.80;;;9.60;99.90;;;;;;5047737;28;20177;-58
2023/03/10 12:56:39;;;;;;;1.40;0.57;;;10.60;99.90;;;;;;5051914;28;20181;-60
2023/03/10 12:59:28;;;;;;;4.87;0.60;;;11.00;99.90;;;;;;5023493;28;20568;-59
2023/03/10 13:01:56;;;;;;;4.10;0.77;;;10.20;99.90;;;;;;5051907;28;20173;-59
2023/03/10 13:04:23;;;;;;;0.83;0.50;;;10.70;99.90;;;;;;5051712;28;20204;-59
2023/03/10 13:06:49;;;;;;;2.97;0.60;;;10.80;99.90;;;;;;5051781;28;20659;-59
2023/03/10 13:09:37;;;;;;;0.90;0.50;;;9.90;99.90;;;;;;5051420;28;20212;-59
2023/03/10 13:12:10;;;;;;;1.27;0.60;;;10.10;99.90;;;;;;5051714;28;20189;-58
2023/03/10 13:14:38;;;;;;;1.20;0.77;;;9.30;99.90;;;;;;5051448;28;20244;-59
2023/03/10 13:17:05;;;;;;;1.63;0.70;;;9.20;99.90;;;;;;5033622;28;20177;-59